createdAt,value
2019-04-07T00:00:12.434Z,6.18
2019-04-07T00:02:43.071Z,6.14
2019-04-07T00:05:14.904Z,6.09
2019-04-07T00:07:45.684Z,6.03
2019-04-07T00:10:16.672Z,5.98
2019-04-07T00:12:47.734Z,5.96
2019-04-07T00:15:19.069Z,5.97
2019-04-07T00:17:50.565Z,5.86
2019-04-07T00:20:23.639Z,5.92
2019-04-07T00:22:55.127Z,5.83
2019-04-07T00:25:25.888Z,5.75
2019-04-07T00:27:57.490Z,5.57
2019-04-07T00:30:29.442Z,5.48
2019-04-07T00:33:00.827Z,5.35
2019-04-07T00:35:33.275Z,5.29
2019-04-07T00:38:04.843Z,5.26
2019-04-07T00:40:36.240Z,5.20
2019-04-07T00:43:06.896Z,5.14
2019-04-07T00:45:37.956Z,5.13
2019-04-07T00:48:09.068Z,5.04
2019-04-07T00:50:40.522Z,4.98
2019-04-07T00:53:11.527Z,5.09
2019-04-07T00:55:42.610Z,5.08
2019-04-07T00:58:13.735Z,4.97
2019-04-07T01:00:44.641Z,5.05
2019-04-07T01:03:15.684Z,4.90
2019-04-07T01:05:46.774Z,4.78
2019-04-07T01:08:17.997Z,4.78
2019-04-07T01:10:49.102Z,4.74
2019-04-07T01:13:20.115Z,4.83
2019-04-07T01:15:51.092Z,4.79
2019-04-07T01:18:22.147Z,4.78
2019-04-07T01:20:53.089Z,4.88
2019-04-07T01:23:24.150Z,4.71
2019-04-07T01:25:55.904Z,4.59
2019-04-07T01:28:27.447Z,4.63
2019-04-07T01:30:59.497Z,4.55
2019-04-07T01:33:30.541Z,4.39
2019-04-07T01:36:02.070Z,4.28
2019-04-07T01:38:33.295Z,4.28
2019-04-07T01:41:12.149Z,4.14
2019-04-07T01:43:48.175Z,4.04
2019-04-07T01:46:26.429Z,3.99
2019-04-07T01:49:15.816Z,4.04
2019-04-07T01:51:51.850Z,3.97
2019-04-07T01:54:40.392Z,3.95
2019-04-07T01:57:21.596Z,3.90
2019-04-07T02:00:00.775Z,3.77
2019-04-07T02:02:36.681Z,3.73
2019-04-07T02:05:12.362Z,3.68
2019-04-07T02:07:54.150Z,3.65
2019-04-07T02:10:27.423Z,3.65
2019-04-07T02:13:06.113Z,3.66
2019-04-07T02:15:42.149Z,3.60
2019-04-07T02:18:14.804Z,3.66
2019-04-07T02:20:59.011Z,3.50
2019-04-07T02:23:47.190Z,3.44
2019-04-07T02:26:39.011Z,3.36
2019-04-07T02:29:11.720Z,3.31
2019-04-07T02:31:46.204Z,3.21
2019-04-07T02:34:19.668Z,3.16
2019-04-07T02:37:04.769Z,3.18
2019-04-07T02:39:49.180Z,3.12
2019-04-07T02:42:38.358Z,3.09
2019-04-07T02:45:18.096Z,3.07
2019-04-07T02:47:53.513Z,2.96
2019-04-07T02:50:28.378Z,2.94
2019-04-07T02:53:01.613Z,2.91
2019-04-07T02:55:37.477Z,2.82
2019-04-07T02:58:10.361Z,2.74
2019-04-07T03:00:43.242Z,2.77
2019-04-07T03:03:34.391Z,2.81
2019-04-07T03:06:10.104Z,2.77
2019-04-07T03:08:49.220Z,2.74
2019-04-07T03:11:27.739Z,2.74
2019-04-07T03:14:03.747Z,2.75
2019-04-07T03:16:53.044Z,2.74
2019-04-07T03:19:28.690Z,2.66
2019-04-07T03:22:13.380Z,2.67
2019-04-07T03:24:46.072Z,2.62
2019-04-07T03:27:36.078Z,2.70
2019-04-07T03:30:09.468Z,2.76
2019-04-07T03:33:01.115Z,2.89
2019-04-07T03:35:34.353Z,3.02
2019-04-07T03:38:25.075Z,3.21
2019-04-07T03:40:59.022Z,3.37
2019-04-07T03:43:48.087Z,3.55
2019-04-07T03:46:21.579Z,3.38
2019-04-07T03:49:06.018Z,3.31
2019-04-07T03:51:41.889Z,3.34
2019-04-07T03:54:18.346Z,3.47
2019-04-07T03:56:56.927Z,3.67
2019-04-07T03:59:36.457Z,3.76
2019-04-07T04:02:26.321Z,3.89
2019-04-07T04:04:59.626Z,3.99
2019-04-07T04:07:38.726Z,4.23
2019-04-07T04:10:11.685Z,4.41
2019-04-07T04:12:56.618Z,4.67
2019-04-07T04:15:29.820Z,4.94
2019-04-07T04:18:01.200Z,4.79
2019-04-07T04:20:32.349Z,4.89
2019-04-07T04:23:03.984Z,5.04
2019-04-07T04:25:35.045Z,5.32
2019-04-07T04:28:06.616Z,5.60
2019-04-07T04:30:37.577Z,5.93
2019-04-07T04:33:10.310Z,6.22
2019-04-07T04:35:41.435Z,6.58
2019-04-07T04:38:12.477Z,6.86
2019-04-07T04:40:44.076Z,7.20
2019-04-07T04:43:15.593Z,7.40
2019-04-07T04:45:46.378Z,7.59
2019-04-07T04:48:17.464Z,7.92
2019-04-07T04:50:49.157Z,8.50
2019-04-07T04:53:20.074Z,9.23
2019-04-07T04:55:51.506Z,9.62
2019-04-07T04:58:22.904Z,9.96
2019-04-07T05:00:53.995Z,10.19
2019-04-07T05:03:24.987Z,10.34
2019-04-07T05:05:56.266Z,10.47
2019-04-07T05:08:27.267Z,10.63
2019-04-07T05:10:58.825Z,10.67
2019-04-07T05:13:29.697Z,11.01
2019-04-07T05:16:00.583Z,10.99
2019-04-07T05:18:32.307Z,11.06
2019-04-07T05:21:03.390Z,11.26
2019-04-07T05:23:34.846Z,11.36
2019-04-07T05:26:06.027Z,11.29
2019-04-07T05:28:37.955Z,11.29
2019-04-07T05:31:09.778Z,11.33
2019-04-07T05:33:42.041Z,11.50
2019-04-07T05:36:13.008Z,11.47
2019-04-07T05:38:44.566Z,11.88
2019-04-07T05:41:15.708Z,11.99
2019-04-07T05:43:47.025Z,12.24
2019-04-07T05:46:17.882Z,12.24
2019-04-07T05:48:50.492Z,12.45
2019-04-07T05:51:22.049Z,12.48
2019-04-07T05:53:52.804Z,12.41
2019-04-07T05:56:28.090Z,12.65
2019-04-07T05:58:56.133Z,12.88
2019-04-07T06:01:26.991Z,12.80
2019-04-07T06:03:57.969Z,13.05
2019-04-07T06:06:29.033Z,13.14
2019-04-07T06:08:59.993Z,13.06
2019-04-07T06:11:32.979Z,12.88
2019-04-07T06:14:03.231Z,12.94
2019-04-07T06:16:34.396Z,13.08
2019-04-07T06:19:07.874Z,12.96
2019-04-07T06:21:37.877Z,13.11
2019-04-07T06:24:08.976Z,13.38
2019-04-07T06:26:42.108Z,13.31
2019-04-07T06:29:12.341Z,13.49
2019-04-07T06:31:43.725Z,13.76
2019-04-07T06:34:16.159Z,13.93
2019-04-07T06:36:51.643Z,13.83
2019-04-07T06:39:20.118Z,13.90
2019-04-07T06:41:51.278Z,14.03
2019-04-07T06:44:23.491Z,14.10
2019-04-07T06:46:59.877Z,14.38
2019-04-07T06:49:33.782Z,14.40
2019-04-07T06:52:21.765Z,14.49
2019-04-07T06:55:00.519Z,14.24
2019-04-07T06:57:37.520Z,14.66
2019-04-07T07:00:26.038Z,14.86
2019-04-07T07:02:59.643Z,14.96
2019-04-07T07:05:49.504Z,14.62
2019-04-07T07:08:45.857Z,14.51
2019-04-07T07:11:32.374Z,14.33
2019-04-07T07:14:14.350Z,14.73
2019-04-07T07:17:00.381Z,14.95
2019-04-07T07:19:42.286Z,14.88
2019-04-07T07:22:16.628Z,15.22
2019-04-07T07:24:47.785Z,15.47
2019-04-07T07:27:18.511Z,15.46
2019-04-07T07:29:51.922Z,15.35
2019-04-07T07:32:22.577Z,15.63
2019-04-07T07:34:55.207Z,15.86
2019-04-07T07:37:26.907Z,15.95
2019-04-07T07:39:57.703Z,15.95
2019-04-07T07:42:28.954Z,15.94
2019-04-07T07:44:59.811Z,15.95
2019-04-07T07:47:31.353Z,15.97
2019-04-07T07:50:04.965Z,15.96
2019-04-07T07:52:35.118Z,15.94
2019-04-07T07:55:07.544Z,15.91
2019-04-07T07:57:38.603Z,16.20
2019-04-07T08:00:10.316Z,16.45
2019-04-07T08:02:41.056Z,16.23
2019-04-07T08:05:12.439Z,16.34
2019-04-07T08:07:45.738Z,16.23
2019-04-07T08:10:17.061Z,16.67
2019-04-07T08:12:49.479Z,16.54
2019-04-07T08:15:22.834Z,16.63
2019-04-07T08:17:53.130Z,16.71
2019-04-07T08:20:24.265Z,17.03
2019-04-07T08:22:55.129Z,17.03
2019-04-07T08:25:26.203Z,16.88
2019-04-07T08:27:57.440Z,16.98
2019-04-07T08:30:29.140Z,17.11
2019-04-07T08:33:01.294Z,16.96
2019-04-07T08:35:38.223Z,17.02
2019-04-07T08:38:06.705Z,17.08
2019-04-07T08:40:39.060Z,17.16
2019-04-07T08:43:09.969Z,17.24
2019-04-07T08:45:41.431Z,17.14
2019-04-07T08:48:12.382Z,17.29
2019-04-07T08:50:43.487Z,17.44
2019-04-07T08:53:14.827Z,17.34
2019-04-07T08:55:48.552Z,17.13
2019-04-07T08:58:25.719Z,17.32
2019-04-07T09:00:55.914Z,17.17
2019-04-07T09:03:27.030Z,17.46
2019-04-07T09:05:58.533Z,17.65
2019-04-07T09:08:29.603Z,17.81
2019-04-07T09:11:02.169Z,17.69
2019-04-07T09:13:34.147Z,17.63
2019-04-07T09:16:17.363Z,17.77
2019-04-07T09:19:08.336Z,17.60
2019-04-07T09:21:56.879Z,17.67
2019-04-07T09:24:33.429Z,17.90
2019-04-07T09:27:09.085Z,17.82
2019-04-07T09:29:58.902Z,17.84
2019-04-07T09:32:31.149Z,18.16
2019-04-07T09:35:04.763Z,18.06
2019-04-07T09:37:37.831Z,18.27
2019-04-07T09:40:16.398Z,18.04
2019-04-07T09:43:04.185Z,18.22
2019-04-07T09:45:39.375Z,18.34
2019-04-07T09:48:13.817Z,18.53
2019-04-07T09:50:49.590Z,18.69
2019-04-07T09:53:22.971Z,18.45
2019-04-07T09:56:05.747Z,18.87
2019-04-07T09:58:54.759Z,19.16
2019-04-07T10:01:28.751Z,18.96
2019-04-07T10:04:01.315Z,18.85
2019-04-07T10:06:39.824Z,19.25
2019-04-07T10:09:21.775Z,18.56
2019-04-07T10:12:00.457Z,18.64
2019-04-07T10:14:48.788Z,19.07
2019-04-07T10:17:22.169Z,18.67
2019-04-07T10:20:06.778Z,18.64
2019-04-07T10:22:39.571Z,18.40
2019-04-07T10:25:15.540Z,18.37
2019-04-07T10:27:50.987Z,18.48
2019-04-07T10:30:42.018Z,18.94
2019-04-07T10:33:31.607Z,19.02
2019-04-07T10:36:22.861Z,18.64
2019-04-07T10:39:07.264Z,18.77
2019-04-07T10:53:19.525Z,19.55
2019-04-07T10:56:05.575Z,19.68
2019-04-07T10:58:43.950Z,19.46
2019-04-07T11:01:36.349Z,19.57
2019-04-07T11:04:09.496Z,19.47
2019-04-07T11:06:48.322Z,19.54
2019-04-07T11:09:36.875Z,19.54
2019-04-07T11:12:19.886Z,19.49
2019-04-07T11:14:59.031Z,19.82
2019-04-07T11:17:47.802Z,20.05
2019-04-07T11:20:20.529Z,19.62
2019-04-07T11:22:58.916Z,19.64
2019-04-07T11:25:34.679Z,19.72
2019-04-07T11:28:24.225Z,19.71
2019-04-07T11:30:59.200Z,19.46
2019-04-07T11:33:47.857Z,19.30
2019-04-07T11:36:24.389Z,19.14
2019-04-07T11:39:13.464Z,19.63
2019-04-07T11:41:57.385Z,19.20
2019-04-07T11:44:35.711Z,19.65
2019-04-07T11:47:08.835Z,19.98
2019-04-07T11:49:42.841Z,19.52
2019-04-07T11:52:31.039Z,19.32
2019-04-07T11:55:03.535Z,19.74
2019-04-07T11:57:43.293Z,19.78
2019-04-07T12:00:30.042Z,20.07
2019-04-07T12:03:19.207Z,19.96
2019-04-07T12:05:52.266Z,20.99
2019-04-07T12:08:42.862Z,20.26
2019-04-07T12:11:18.220Z,19.89
2019-04-07T12:14:07.371Z,20.08
2019-04-07T12:16:57.974Z,20.10
2019-04-07T12:19:32.227Z,20.40
2019-04-07T12:22:14.314Z,20.29
2019-04-07T12:24:57.493Z,20.18
2019-04-07T12:27:27.094Z,19.26
2019-04-07T12:30:16.493Z,19.90
2019-04-07T12:32:51.758Z,19.74
2019-04-07T12:35:36.869Z,19.39
2019-04-07T12:38:21.414Z,19.55
2019-04-07T12:41:04.053Z,19.96
2019-04-07T12:43:49.199Z,20.34
2019-04-07T12:46:36.504Z,20.63
2019-04-07T12:49:21.192Z,20.37
2019-04-07T12:52:10.166Z,19.94
2019-04-07T12:54:48.676Z,20.11
2019-04-07T12:57:24.224Z,19.59
2019-04-07T13:00:02.576Z,19.40
2019-04-07T13:02:38.230Z,19.21
2019-04-07T13:05:13.903Z,19.48
2019-04-07T13:07:51.369Z,20.36
2019-04-07T13:31:14.553Z,19.45
2019-04-07T13:33:59.547Z,19.61
2019-04-07T13:36:50.983Z,19.37
2019-04-07T13:39:22.692Z,19.42
2019-04-07T13:42:05.250Z,19.23
2019-04-07T13:44:55.847Z,18.93
2019-04-07T13:47:28.758Z,19.03
2019-04-07T13:50:17.970Z,19.10
2019-04-07T13:52:54.161Z,19.14
2019-04-07T13:55:24.463Z,18.97
2019-04-07T13:58:13.958Z,18.89
2019-04-07T14:01:02.026Z,18.99
2019-04-07T14:03:35.561Z,18.93
2019-04-07T14:06:20.565Z,18.95
2019-04-07T14:08:53.070Z,18.88
2019-04-07T14:11:32.766Z,18.80
2019-04-07T14:14:05.688Z,18.68
2019-04-07T14:16:54.562Z,18.78
2019-04-07T14:19:37.076Z,18.80
2019-04-07T14:22:33.203Z,18.88
2019-04-07T14:25:25.660Z,19.12
2019-04-07T14:28:13.381Z,19.19
2019-04-07T14:30:45.926Z,19.33
2019-04-07T14:33:34.629Z,19.42
2019-04-07T14:36:12.879Z,19.16
2019-04-07T14:38:45.572Z,19.21
2019-04-07T14:41:21.412Z,18.91
2019-04-07T14:43:59.771Z,18.87
2019-04-07T14:46:42.765Z,18.90
2019-04-07T14:49:17.416Z,18.54
2019-04-07T14:51:57.033Z,18.33
2019-04-07T14:54:29.532Z,18.28
2019-04-07T14:57:11.652Z,18.08
2019-04-07T15:00:01.893Z,18.13
2019-04-07T15:02:33.466Z,18.23
2019-04-07T15:05:20.507Z,18.23
2019-04-07T15:08:07.219Z,18.05
2019-04-07T15:10:39.852Z,18.05
2019-04-07T15:13:17.113Z,18.02
2019-04-07T15:15:50.185Z,18.02
2019-04-07T15:18:21.422Z,17.77
2019-04-07T15:20:57.305Z,17.86
2019-04-07T15:23:31.720Z,17.75
2019-04-07T15:26:02.173Z,17.63
2019-04-07T15:28:34.041Z,17.66
2019-04-07T15:31:04.971Z,17.57
2019-04-07T15:33:36.032Z,17.45
2019-04-07T15:36:09.137Z,17.36
2019-04-07T15:38:41.422Z,17.30
2019-04-07T15:41:15.294Z,17.13
2019-04-07T15:43:54.810Z,17.22
2019-04-07T15:46:25.691Z,17.08
2019-04-07T15:48:57.121Z,17.04
2019-04-07T15:51:28.318Z,17.13
2019-04-07T15:53:59.568Z,17.05
2019-04-07T15:56:30.403Z,17.10
2019-04-07T15:59:02.370Z,16.95
2019-04-07T16:01:33.685Z,16.82
2019-04-07T16:04:06.120Z,16.86
2019-04-07T16:06:37.178Z,16.71
2019-04-07T16:09:14.099Z,16.43
2019-04-07T16:11:42.207Z,16.32
2019-04-07T16:14:15.058Z,16.41
2019-04-07T16:16:46.148Z,16.26
2019-04-07T16:19:21.974Z,16.11
2019-04-07T16:21:49.423Z,15.91
2019-04-07T16:24:21.904Z,15.66
2019-04-07T16:26:52.955Z,15.74
2019-04-07T16:29:23.815Z,15.71
2019-04-07T16:31:57.072Z,15.63
2019-04-07T16:34:28.609Z,15.50
2019-04-07T16:37:02.449Z,15.31
2019-04-07T16:39:37.749Z,15.20
2019-04-07T16:42:15.264Z,15.10
2019-04-07T16:44:50.778Z,15.04
2019-04-07T16:47:32.753Z,15.00
2019-04-07T16:50:04.431Z,14.90
2019-04-07T16:52:39.814Z,14.75
2019-04-07T16:55:20.215Z,14.51
2019-04-07T16:57:54.999Z,14.52
2019-04-07T17:00:26.044Z,14.71
2019-04-07T17:02:56.954Z,14.59
2019-04-07T17:05:28.977Z,14.48
2019-04-07T17:07:59.654Z,14.44
2019-04-07T17:10:33.869Z,14.42
2019-04-07T17:13:13.882Z,14.37
2019-04-07T17:15:39.596Z,14.35
2019-04-07T17:18:11.182Z,14.24
2019-04-07T17:20:42.358Z,14.07
2019-04-07T17:23:13.381Z,13.96
2019-04-07T17:25:45.124Z,13.91
2019-04-07T17:28:16.297Z,13.81
2019-04-07T17:30:50.648Z,13.65
2019-04-07T17:33:23.347Z,13.50
2019-04-07T17:35:55.356Z,13.37
2019-04-07T17:38:36.930Z,13.33
2019-04-07T17:41:09.119Z,13.41
2019-04-07T17:43:59.777Z,13.42
2019-04-07T17:46:34.843Z,13.33
2019-04-07T17:49:16.713Z,13.25
2019-04-07T17:52:09.945Z,13.11
2019-04-07T17:54:46.297Z,12.86
2019-04-07T17:57:27.788Z,12.59
2019-04-07T18:00:00.353Z,12.39
2019-04-07T18:02:34.851Z,12.30
2019-04-07T18:05:14.845Z,12.24
2019-04-07T18:07:56.518Z,12.19
2019-04-07T18:10:29.745Z,12.28
2019-04-07T18:13:02.993Z,12.40
2019-04-07T18:15:41.545Z,12.40
2019-04-07T18:18:30.416Z,12.28
2019-04-07T18:21:03.072Z,12.32
2019-04-07T18:23:38.531Z,12.42
2019-04-07T18:26:23.266Z,12.56
2019-04-07T18:28:58.578Z,12.59
2019-04-07T18:31:35.055Z,12.63
2019-04-07T18:34:26.992Z,12.67
2019-04-07T18:37:13.539Z,12.71
2019-04-07T18:39:52.345Z,12.66
2019-04-07T18:42:33.464Z,12.48
2019-04-07T18:45:12.528Z,12.29
2019-04-07T18:47:44.379Z,12.18
2019-04-07T18:50:36.942Z,12.19
2019-04-07T18:53:10.306Z,12.15
2019-04-07T18:55:48.876Z,12.04
2019-04-07T18:58:24.528Z,12.00
2019-04-07T19:01:00.765Z,11.99
2019-04-07T19:03:41.835Z,11.92
2019-04-07T19:06:26.464Z,12.20
2019-04-07T19:09:05.094Z,12.28
2019-04-07T19:12:05.111Z,12.25
2019-04-07T19:14:46.647Z,12.22
2019-04-07T19:17:30.340Z,12.27
2019-04-07T19:20:19.270Z,12.19
2019-04-07T19:23:01.207Z,12.09
2019-04-07T19:25:52.368Z,11.95
2019-04-07T19:28:34.220Z,11.81
2019-04-07T19:31:10.775Z,11.72
2019-04-07T19:33:56.662Z,11.76
2019-04-07T19:36:44.374Z,11.71
2019-04-07T19:39:21.433Z,11.65
2019-04-07T19:41:53.070Z,11.61
2019-04-07T19:44:38.375Z,11.48
2019-04-07T19:47:18.293Z,11.38
2019-04-07T19:49:53.119Z,11.35
2019-04-07T19:52:41.803Z,11.42
2019-04-07T19:55:22.770Z,11.37
2019-04-07T19:57:52.635Z,11.28
2019-04-07T20:00:37.316Z,11.22
2019-04-07T20:03:26.364Z,11.29
2019-04-07T20:05:59.049Z,11.38
2019-04-07T20:08:37.572Z,11.34
2019-04-07T20:11:10.152Z,11.30
2019-04-07T20:13:42.551Z,11.20
2019-04-07T20:16:16.345Z,11.13
2019-04-07T20:18:49.563Z,11.09
2019-04-07T20:21:33.957Z,10.91
2019-04-07T20:24:01.410Z,10.92
2019-04-07T20:26:52.565Z,10.89
2019-04-07T20:29:42.646Z,10.88
2019-04-07T20:32:13.164Z,11.00
2019-04-07T20:35:02.204Z,11.01
2019-04-07T20:37:34.918Z,10.93
2019-04-07T20:40:22.132Z,10.86
2019-04-07T20:42:57.089Z,10.74
2019-04-07T20:45:28.920Z,10.72
2019-04-07T20:48:03.088Z,10.84
2019-04-07T20:50:37.727Z,10.93
2019-04-07T20:53:16.579Z,10.92
2019-04-07T20:55:47.626Z,10.82
2019-04-07T20:58:43.796Z,10.75
2019-04-07T21:01:11.375Z,10.68
2019-04-07T21:03:49.298Z,10.73
2019-04-07T21:06:20.200Z,10.76
2019-04-07T21:09:09.921Z,10.58
2019-04-07T21:11:45.116Z,10.28
2019-04-07T21:14:17.161Z,10.11
2019-04-07T21:17:01.020Z,10.01
2019-04-07T21:19:36.510Z,9.86
2019-04-07T21:22:16.878Z,9.80
2019-04-07T21:25:01.117Z,9.71
2019-04-07T21:27:42.901Z,10.04
2019-04-07T21:30:16.375Z,9.89
2019-04-07T21:32:51.648Z,9.78
2019-04-07T21:35:23.361Z,9.66
2019-04-07T21:38:16.190Z,9.56
2019-04-07T21:41:04.364Z,9.57
2019-04-07T21:43:55.447Z,9.52
2019-04-07T21:46:42.949Z,9.63
2019-04-07T21:49:15.286Z,9.93
2019-04-07T21:51:48.330Z,9.91
2019-04-07T21:54:23.423Z,10.07
2019-04-07T21:57:00.334Z,10.13
2019-04-07T21:59:35.794Z,10.15
2019-04-07T22:02:11.681Z,10.13
2019-04-07T22:04:42.497Z,10.14
2019-04-07T22:07:15.359Z,10.07
2019-04-07T22:09:50.082Z,10.12
2019-04-07T22:12:20.383Z,10.10
2019-04-07T22:14:51.053Z,10.01
2019-04-07T22:17:22.012Z,9.98
2019-04-07T22:19:53.148Z,9.93
2019-04-07T22:22:26.602Z,10.00
2019-04-07T22:24:56.521Z,9.99
2019-04-07T22:27:28.676Z,9.97
2019-04-07T22:29:59.985Z,9.91
2019-04-07T22:32:31.642Z,9.87
2019-04-07T22:35:04.796Z,9.84
2019-04-07T22:37:35.626Z,9.78
2019-04-07T22:40:21.385Z,9.79
2019-04-07T22:42:52.456Z,9.77
2019-04-07T22:45:26.423Z,9.69
2019-04-07T22:47:55.789Z,9.68
2019-04-07T22:50:27.262Z,9.59
2019-04-07T22:52:58.219Z,9.59
2019-04-07T22:55:29.210Z,9.52
2019-04-07T22:58:00.560Z,9.51
2019-04-07T23:00:31.499Z,9.46
2019-04-07T23:03:02.475Z,9.33
2019-04-07T23:05:33.917Z,9.20
2019-04-07T23:08:04.889Z,9.14
2019-04-07T23:10:36.069Z,9.13
2019-04-07T23:13:07.706Z,9.03
2019-04-07T23:15:44.298Z,8.86
2019-04-07T23:18:11.614Z,8.83
2019-04-07T23:20:42.716Z,8.80
2019-04-07T23:23:14.431Z,8.70
2019-04-07T23:25:46.081Z,8.70
2019-04-07T23:28:17.076Z,8.75
2019-04-07T23:30:48.132Z,8.85
2019-04-07T23:33:19.071Z,8.80
2019-04-07T23:35:49.944Z,8.85
2019-04-07T23:38:21.889Z,8.85
2019-04-07T23:40:53.479Z,8.87
2019-04-07T23:43:24.974Z,8.75
2019-04-07T23:45:55.988Z,8.70
2019-04-07T23:48:27.090Z,8.72
2019-04-07T23:50:58.240Z,8.71
2019-04-07T23:54:07.208Z,8.74
2019-04-07T23:56:39.339Z,8.73
2019-04-07T23:59:12.056Z,8.70
